sensor_id;sensor_type;location;lat;lon;timestamp;P1;P2;P0
61760;PMS5003;47664;51.660;-0.100;2023-11-21T00:02:22;7;6;
61760;PMS5003;47664;51.660;-0.100;2023-11-21T00:04:50;11;9;
61760;PMS5003;47664;51.660;-0.100;2023-11-21T00:07:17;6;6;
61760;PMS5003;47664;51.660;-0.100;2023-11-21T00:09:44;9;7;
61760;PMS5003;47664;51.660;-0.100;2023-11-21T00:12:11;6;6;
61760;PMS5003;47664;51.660;-0.100;2023-11-21T00:14:38;8;6;
61760;PMS5003;47664;51.660;-0.100;2023-11-21T00:17:05;6;6;
61760;PMS5003;47664;51.660;-0.100;2023-11-21T00:19:32;10;6;
61760;PMS5003;47664;51.660;-0.100;2023-11-21T00:21:59;7;6;
61760;PMS5003;47664;51.660;-0.100;2023-11-21T00:24:26;9;8;
61760;PMS5003;47664;51.660;-0.100;2023-11-21T00:26:53;8;8;
61760;PMS5003;47664;51.660;-0.100;2023-11-21T00:29:20;7;7;
61760;PMS5003;47664;51.660;-0.100;2023-11-21T00:31:47;5;5;
61760;PMS5003;47664;51.660;-0.100;2023-11-21T00:34:15;8;7;
61760;PMS5003;47664;51.660;-0.100;2023-11-21T00:36:42;7;7;
61760;PMS5003;47664;51.660;-0.100;2023-11-21T00:39:09;9;8;
61760;PMS5003;47664;51.660;-0.100;2023-11-21T00:41:36;9;6;
61760;PMS5003;47664;51.660;-0.100;2023-11-21T00:44:03;9;7;
61760;PMS5003;47664;51.660;-0.100;2023-11-21T00:46:31;7;7;
61760;PMS5003;47664;51.660;-0.100;2023-11-21T00:48:58;12;7;
61760;PMS5003;47664;51.660;-0.100;2023-11-21T00:51:25;6;6;
61760;PMS5003;47664;51.660;-0.100;2023-11-21T00:53:52;9;9;
61760;PMS5003;47664;51.660;-0.100;2023-11-21T00:56:19;8;8;
61760;PMS5003;47664;51.660;-0.100;2023-11-21T00:58:45;6;6;
61760;PMS5003;47664;51.660;-0.100;2023-11-21T01:01:12;9;6;
61760;PMS5003;47664;51.660;-0.100;2023-11-21T01:03:39;7;6;
61760;PMS5003;47664;51.660;-0.100;2023-11-21T01:06:07;6;6;
61760;PMS5003;47664;51.660;-0.100;2023-11-21T01:08:34;6;6;
61760;PMS5003;47664;51.660;-0.100;2023-11-21T01:11:01;9;6;
61760;PMS5003;47664;51.660;-0.100;2023-11-21T01:13:28;12;8;
61760;PMS5003;47664;51.660;-0.100;2023-11-21T01:15:54;9;8;
61760;PMS5003;47664;51.660;-0.100;2023-11-21T01:18:22;10;6;
61760;PMS5003;47664;51.660;-0.100;2023-11-21T01:20:49;7;6;
61760;PMS5003;47664;51.660;-0.100;2023-11-21T01:23:16;8;6;
61760;PMS5003;47664;51.660;-0.100;2023-11-21T01:25:43;8;6;
61760;PMS5003;47664;51.660;-0.100;2023-11-21T01:28:10;3;3;
61760;PMS5003;47664;51.660;-0.100;2023-11-21T01:30:37;6;6;
61760;PMS5003;47664;51.660;-0.100;2023-11-21T01:33:04;6;6;
61760;PMS5003;47664;51.660;-0.100;2023-11-21T01:35:32;13;12;
61760;PMS5003;47664;51.660;-0.100;2023-11-21T01:37:59;8;5;
61760;PMS5003;47664;51.660;-0.100;2023-11-21T01:40:26;6;6;
61760;PMS5003;47664;51.660;-0.100;2023-11-21T01:42:53;9;7;
61760;PMS5003;47664;51.660;-0.100;2023-11-21T01:45:20;9;9;
61760;PMS5003;47664;51.660;-0.100;2023-11-21T01:47:47;8;8;
61760;PMS5003;47664;51.660;-0.100;2023-11-21T01:50:15;5;5;
61760;PMS5003;47664;51.660;-0.100;2023-11-21T01:52:43;9;7;
61760;PMS5003;47664;51.660;-0.100;2023-11-21T01:55:11;7;6;
61760;PMS5003;47664;51.660;-0.100;2023-11-21T01:57:43;5;5;
61760;PMS5003;47664;51.660;-0.100;2023-11-21T02:00:11;5;5;
61760;PMS5003;47664;51.660;-0.100;2023-11-21T02:02:38;8;6;
61760;PMS5003;47664;51.660;-0.100;2023-11-21T02:05:05;8;8;
61760;PMS5003;47664;51.660;-0.100;2023-11-21T02:07:33;15;14;
61760;PMS5003;47664;51.660;-0.100;2023-11-21T02:10:00;10;9;
61760;PMS5003;47664;51.660;-0.100;2023-11-21T02:12:27;8;7;
61760;PMS5003;47664;51.660;-0.100;2023-11-21T02:14:54;8;7;
61760;PMS5003;47664;51.660;-0.100;2023-11-21T02:17:21;7;6;
61760;PMS5003;47664;51.660;-0.100;2023-11-21T02:19:48;7;7;
61760;PMS5003;47664;51.660;-0.100;2023-11-21T02:22:15;5;5;
61760;PMS5003;47664;51.660;-0.100;2023-11-21T02:24:42;4;4;
61760;PMS5003;47664;51.660;-0.100;2023-11-21T02:27:09;6;5;
61760;PMS5003;47664;51.660;-0.100;2023-11-21T02:29:38;8;6;
61760;PMS5003;47664;51.660;-0.100;2023-11-21T02:32:04;4;4;
61760;PMS5003;47664;51.660;-0.100;2023-11-21T02:34:32;4;4;
61760;PMS5003;47664;51.660;-0.100;2023-11-21T02:36:59;3;3;
61760;PMS5003;47664;51.660;-0.100;2023-11-21T02:39:26;6;4;
61760;PMS5003;47664;51.660;-0.100;2023-11-21T02:41:53;3;3;
61760;PMS5003;47664;51.660;-0.100;2023-11-21T02:44:20;3;3;
61760;PMS5003;47664;51.660;-0.100;2023-11-21T02:46:47;4;2;
61760;PMS5003;47664;51.660;-0.100;2023-11-21T02:49:14;2;2;
61760;PMS5003;47664;51.660;-0.100;2023-11-21T02:51:41;2;2;
61760;PMS5003;47664;51.660;-0.100;2023-11-21T02:54:08;3;3;
61760;PMS5003;47664;51.660;-0.100;2023-11-21T02:56:35;4;4;
61760;PMS5003;47664;51.660;-0.100;2023-11-21T02:59:02;4;4;
61760;PMS5003;47664;51.660;-0.100;2023-11-21T03:01:29;4;4;
61760;PMS5003;47664;51.660;-0.100;2023-11-21T03:03:56;4;3;
61760;PMS5003;47664;51.660;-0.100;2023-11-21T03:06:23;2;2;
61760;PMS5003;47664;51.660;-0.100;2023-11-21T03:08:50;2;2;
61760;PMS5003;47664;51.660;-0.100;2023-11-21T03:11:17;5;4;
61760;PMS5003;47664;51.660;-0.100;2023-11-21T03:13:44;2;2;
61760;PMS5003;47664;51.660;-0.100;2023-11-21T03:16:11;4;3;
61760;PMS5003;47664;51.660;-0.100;2023-11-21T03:18:38;4;3;
61760;PMS5003;47664;51.660;-0.100;2023-11-21T03:21:06;4;4;
61760;PMS5003;47664;51.660;-0.100;2023-11-21T03:23:34;4;4;
61760;PMS5003;47664;51.660;-0.100;2023-11-21T03:26:01;2;2;
61760;PMS5003;47664;51.660;-0.100;2023-11-21T03:28:28;2;2;
61760;PMS5003;47664;51.660;-0.100;2023-11-21T03:30:55;2;2;
61760;PMS5003;47664;51.660;-0.100;2023-11-21T03:33:22;3;3;
61760;PMS5003;47664;51.660;-0.100;2023-11-21T03:35:49;2;2;
61760;PMS5003;47664;51.660;-0.100;2023-11-21T03:38:16;1;1;
61760;PMS5003;47664;51.660;-0.100;2023-11-21T03:40:43;3;2;
61760;PMS5003;47664;51.660;-0.100;2023-11-21T03:43:10;1;1;
61760;PMS5003;47664;51.660;-0.100;2023-11-21T03:45:37;2;2;
61760;PMS5003;47664;51.660;-0.100;2023-11-21T03:48:04;3;2;
61760;PMS5003;47664;51.660;-0.100;2023-11-21T03:50:31;4;2;
61760;PMS5003;47664;51.660;-0.100;2023-11-21T03:52:58;2;1;
61760;PMS5003;47664;51.660;-0.100;2023-11-21T03:55:25;3;1;
61760;PMS5003;47664;51.660;-0.100;2023-11-21T03:57:52;2;2;
61760;PMS5003;47664;51.660;-0.100;2023-11-21T04:00:19;1;1;
61760;PMS5003;47664;51.660;-0.100;2023-11-21T04:02:47;2;2;
61760;PMS5003;47664;51.660;-0.100;2023-11-21T04:05:14;2;2;
61760;PMS5003;47664;51.660;-0.100;2023-11-21T04:07:41;6;3;
61760;PMS5003;47664;51.660;-0.100;2023-11-21T04:10:08;2;2;
61760;PMS5003;47664;51.660;-0.100;2023-11-21T04:12:36;3;3;
61760;PMS5003;47664;51.660;-0.100;2023-11-21T04:15:03;1;1;
61760;PMS5003;47664;51.660;-0.100;2023-11-21T04:17:31;3;3;
61760;PMS5003;47664;51.660;-0.100;2023-11-21T04:19:57;1;1;
61760;PMS5003;47664;51.660;-0.100;2023-11-21T04:22:24;0;0;
61760;PMS5003;47664;51.660;-0.100;2023-11-21T04:24:51;1;1;
61760;PMS5003;47664;51.660;-0.100;2023-11-21T04:27:18;1;1;
61760;PMS5003;47664;51.660;-0.100;2023-11-21T04:29:45;3;1;
61760;PMS5003;47664;51.660;-0.100;2023-11-21T04:32:17;2;2;
61760;PMS5003;47664;51.660;-0.100;2023-11-21T04:34:44;4;2;
61760;PMS5003;47664;51.660;-0.100;2023-11-21T04:37:11;2;2;
61760;PMS5003;47664;51.660;-0.100;2023-11-21T04:39:38;3;2;
61760;PMS5003;47664;51.660;-0.100;2023-11-21T04:42:05;4;2;
61760;PMS5003;47664;51.660;-0.100;2023-11-21T04:44:32;1;1;
61760;PMS5003;47664;51.660;-0.100;2023-11-21T04:46:59;1;1;
61760;PMS5003;47664;51.660;-0.100;2023-11-21T04:49:26;2;2;
61760;PMS5003;47664;51.660;-0.100;2023-11-21T04:51:53;4;4;
61760;PMS5003;47664;51.660;-0.100;2023-11-21T04:54:20;3;3;
61760;PMS5003;47664;51.660;-0.100;2023-11-21T04:56:47;3;2;
61760;PMS5003;47664;51.660;-0.100;2023-11-21T04:59:14;3;3;
61760;PMS5003;47664;51.660;-0.100;2023-11-21T05:01:41;3;3;
61760;PMS5003;47664;51.660;-0.100;2023-11-21T05:04:08;4;4;
61760;PMS5003;47664;51.660;-0.100;2023-11-21T05:06:35;2;2;
61760;PMS5003;47664;51.660;-0.100;2023-11-21T05:09:02;5;3;
61760;PMS5003;47664;51.660;-0.100;2023-11-21T05:11:30;2;2;
61760;PMS5003;47664;51.660;-0.100;2023-11-21T05:13:57;2;2;
61760;PMS5003;47664;51.660;-0.100;2023-11-21T05:16:25;5;2;
61760;PMS5003;47664;51.660;-0.100;2023-11-21T05:18:52;3;3;
61760;PMS5003;47664;51.660;-0.100;2023-11-21T05:21:19;0;0;
61760;PMS5003;47664;51.660;-0.100;2023-11-21T05:23:46;2;1;
61760;PMS5003;47664;51.660;-0.100;2023-11-21T05:26:13;7;4;
61760;PMS5003;47664;51.660;-0.100;2023-11-21T05:28:40;2;2;
61760;PMS5003;47664;51.660;-0.100;2023-11-21T05:31:07;1;1;
61760;PMS5003;47664;51.660;-0.100;2023-11-21T05:33:34;2;2;
61760;PMS5003;47664;51.660;-0.100;2023-11-21T05:36:01;0;0;
61760;PMS5003;47664;51.660;-0.100;2023-11-21T05:38:28;1;1;
61760;PMS5003;47664;51.660;-0.100;2023-11-21T05:40:55;2;2;
61760;PMS5003;47664;51.660;-0.100;2023-11-21T05:43:22;2;2;
61760;PMS5003;47664;51.660;-0.100;2023-11-21T05:45:48;0;0;
61760;PMS5003;47664;51.660;-0.100;2023-11-21T05:48:15;1;0;
61760;PMS5003;47664;51.660;-0.100;2023-11-21T05:50:43;2;2;
61760;PMS5003;47664;51.660;-0.100;2023-11-21T05:53:09;1;1;
61760;PMS5003;47664;51.660;-0.100;2023-11-21T05:55:36;2;2;
61760;PMS5003;47664;51.660;-0.100;2023-11-21T05:58:03;3;3;
61760;PMS5003;47664;51.660;-0.100;2023-11-21T06:00:30;1;1;
61760;PMS5003;47664;51.660;-0.100;2023-11-21T06:02:57;2;2;
61760;PMS5003;47664;51.660;-0.100;2023-11-21T06:05:24;2;2;
61760;PMS5003;47664;51.660;-0.100;2023-11-21T06:07:52;1;1;
61760;PMS5003;47664;51.660;-0.100;2023-11-21T06:10:21;0;0;
61760;PMS5003;47664;51.660;-0.100;2023-11-21T06:12:48;0;0;
61760;PMS5003;47664;51.660;-0.100;2023-11-21T06:15:16;1;1;
61760;PMS5003;47664;51.660;-0.100;2023-11-21T06:17:43;0;0;
61760;PMS5003;47664;51.660;-0.100;2023-11-21T06:20:10;1;1;
61760;PMS5003;47664;51.660;-0.100;2023-11-21T06:22:38;0;0;
61760;PMS5003;47664;51.660;-0.100;2023-11-21T06:25:06;5;2;
61760;PMS5003;47664;51.660;-0.100;2023-11-21T06:27:33;3;3;
61760;PMS5003;47664;51.660;-0.100;2023-11-21T06:30:02;4;1;
61760;PMS5003;47664;51.660;-0.100;2023-11-21T06:32:30;1;1;
61760;PMS5003;47664;51.660;-0.100;2023-11-21T06:34:57;0;0;
61760;PMS5003;47664;51.660;-0.100;2023-11-21T06:37:25;1;1;
61760;PMS5003;47664;51.660;-0.100;2023-11-21T06:39:52;4;2;
61760;PMS5003;47664;51.660;-0.100;2023-11-21T06:42:19;4;1;
61760;PMS5003;47664;51.660;-0.100;2023-11-21T06:44:47;3;2;
61760;PMS5003;47664;51.660;-0.100;2023-11-21T06:47:14;5;2;
61760;PMS5003;47664;51.660;-0.100;2023-11-21T06:49:46;4;2;
61760;PMS5003;47664;51.660;-0.100;2023-11-21T06:52:14;2;2;
61760;PMS5003;47664;51.660;-0.100;2023-11-21T06:54:41;3;3;
61760;PMS5003;47664;51.660;-0.100;2023-11-21T06:57:09;3;3;
61760;PMS5003;47664;51.660;-0.100;2023-11-21T06:59:36;2;2;
61760;PMS5003;47664;51.660;-0.100;2023-11-21T07:02:03;5;3;
61760;PMS5003;47664;51.660;-0.100;2023-11-21T07:04:30;2;2;
61760;PMS5003;47664;51.660;-0.100;2023-11-21T07:06:57;5;2;
61760;PMS5003;47664;51.660;-0.100;2023-11-21T07:09:24;3;2;
61760;PMS5003;47664;51.660;-0.100;2023-11-21T07:11:51;4;1;
61760;PMS5003;47664;51.660;-0.100;2023-11-21T07:14:18;3;2;
61760;PMS5003;47664;51.660;-0.100;2023-11-21T07:16:45;2;2;
61760;PMS5003;47664;51.660;-0.100;2023-11-21T07:19:13;3;2;
61760;PMS5003;47664;51.660;-0.100;2023-11-21T07:21:41;1;1;
61760;PMS5003;47664;51.660;-0.100;2023-11-21T07:24:08;3;2;
61760;PMS5003;47664;51.660;-0.100;2023-11-21T07:26:35;1;1;
61760;PMS5003;47664;51.660;-0.100;2023-11-21T07:29:02;5;2;
61760;PMS5003;47664;51.660;-0.100;2023-11-21T07:31:30;3;1;
61760;PMS5003;47664;51.660;-0.100;2023-11-21T07:33:57;1;1;
61760;PMS5003;47664;51.660;-0.100;2023-11-21T07:36:24;4;4;
61760;PMS5003;47664;51.660;-0.100;2023-11-21T07:38:52;5;3;
61760;PMS5003;47664;51.660;-0.100;2023-11-21T07:41:20;6;3;
61760;PMS5003;47664;51.660;-0.100;2023-11-21T07:43:47;2;2;
61760;PMS5003;47664;51.660;-0.100;2023-11-21T07:46:15;3;3;
61760;PMS5003;47664;51.660;-0.100;2023-11-21T07:48:42;5;0;
61760;PMS5003;47664;51.660;-0.100;2023-11-21T07:51:09;3;2;
61760;PMS5003;47664;51.660;-0.100;2023-11-21T07:53:36;3;3;
61760;PMS5003;47664;51.660;-0.100;2023-11-21T07:56:04;4;4;
61760;PMS5003;47664;51.660;-0.100;2023-11-21T07:58:39;3;2;
61760;PMS5003;47664;51.660;-0.100;2023-11-21T08:01:06;6;4;
61760;PMS5003;47664;51.660;-0.100;2023-11-21T08:03:33;5;3;
61760;PMS5003;47664;51.660;-0.100;2023-11-21T08:06:00;6;3;
61760;PMS5003;47664;51.660;-0.100;2023-11-21T08:08:27;2;0;
61760;PMS5003;47664;51.660;-0.100;2023-11-21T08:10:53;4;4;
61760;PMS5003;47664;51.660;-0.100;2023-11-21T08:13:20;1;1;
61760;PMS5003;47664;51.660;-0.100;2023-11-21T08:15:48;1;1;
61760;PMS5003;47664;51.660;-0.100;2023-11-21T08:18:16;3;3;
61760;PMS5003;47664;51.660;-0.100;2023-11-21T08:20:43;1;1;
61760;PMS5003;47664;51.660;-0.100;2023-11-21T08:23:11;2;2;
61760;PMS5003;47664;51.660;-0.100;2023-11-21T08:25:38;2;1;
61760;PMS5003;47664;51.660;-0.100;2023-11-21T08:28:05;1;1;
61760;PMS5003;47664;51.660;-0.100;2023-11-21T08:30:32;2;2;
61760;PMS5003;47664;51.660;-0.100;2023-11-21T08:32:58;0;0;
61760;PMS5003;47664;51.660;-0.100;2023-11-21T08:35:25;3;3;
61760;PMS5003;47664;51.660;-0.100;2023-11-21T08:37:52;1;1;
61760;PMS5003;47664;51.660;-0.100;2023-11-21T08:40:19;3;1;
61760;PMS5003;47664;51.660;-0.100;2023-11-21T08:42:46;4;2;
61760;PMS5003;47664;51.660;-0.100;2023-11-21T08:45:14;1;1;
61760;PMS5003;47664;51.660;-0.100;2023-11-21T08:47:41;3;1;
61760;PMS5003;47664;51.660;-0.100;2023-11-21T08:50:08;3;1;
61760;PMS5003;47664;51.660;-0.100;2023-11-21T08:52:36;2;2;
61760;PMS5003;47664;51.660;-0.100;2023-11-21T08:55:03;3;2;
61760;PMS5003;47664;51.660;-0.100;2023-11-21T08:57:31;1;1;
61760;PMS5003;47664;51.660;-0.100;2023-11-21T08:59:58;0;0;
61760;PMS5003;47664;51.660;-0.100;2023-11-21T09:02:25;3;1;
61760;PMS5003;47664;51.660;-0.100;2023-11-21T09:04:53;0;0;
61760;PMS5003;47664;51.660;-0.100;2023-11-21T09:07:20;2;2;
61760;PMS5003;47664;51.660;-0.100;2023-11-21T09:09:47;1;1;
61760;PMS5003;47664;51.660;-0.100;2023-11-21T09:12:15;2;2;
61760;PMS5003;47664;51.660;-0.100;2023-11-21T09:14:42;1;1;
61760;PMS5003;47664;51.660;-0.100;2023-11-21T09:17:09;1;1;
61760;PMS5003;47664;51.660;-0.100;2023-11-21T09:19:36;1;1;
61760;PMS5003;47664;51.660;-0.100;2023-11-21T09:22:03;1;1;
61760;PMS5003;47664;51.660;-0.100;2023-11-21T09:24:30;3;2;
61760;PMS5003;47664;51.660;-0.100;2023-11-21T09:26:57;1;1;
61760;PMS5003;47664;51.660;-0.100;2023-11-21T09:29:24;1;1;
61760;PMS5003;47664;51.660;-0.100;2023-11-21T09:31:51;1;1;
61760;PMS5003;47664;51.660;-0.100;2023-11-21T09:34:18;2;2;
61760;PMS5003;47664;51.660;-0.100;2023-11-21T09:36:45;1;1;
61760;PMS5003;47664;51.660;-0.100;2023-11-21T09:39:13;1;1;
61760;PMS5003;47664;51.660;-0.100;2023-11-21T09:41:41;2;2;
61760;PMS5003;47664;51.660;-0.100;2023-11-21T09:44:10;61;47;
61760;PMS5003;47664;51.660;-0.100;2023-11-21T09:46:40;1;1;
61760;PMS5003;47664;51.660;-0.100;2023-11-21T09:49:08;3;1;
61760;PMS5003;47664;51.660;-0.100;2023-11-21T09:51:36;2;2;
61760;PMS5003;47664;51.660;-0.100;2023-11-21T09:54:05;1;1;
61760;PMS5003;47664;51.660;-0.100;2023-11-21T09:56:33;2;2;
61760;PMS5003;47664;51.660;-0.100;2023-11-21T09:59:01;1;1;
61760;PMS5003;47664;51.660;-0.100;2023-11-21T10:01:29;1;1;
61760;PMS5003;47664;51.660;-0.100;2023-11-21T10:03:59;0;0;
61760;PMS5003;47664;51.660;-0.100;2023-11-21T10:06:27;3;2;
61760;PMS5003;47664;51.660;-0.100;2023-11-21T10:08:57;2;2;
61760;PMS5003;47664;51.660;-0.100;2023-11-21T10:11:27;2;1;
61760;PMS5003;47664;51.660;-0.100;2023-11-21T10:13:59;0;0;
61760;PMS5003;47664;51.660;-0.100;2023-11-21T10:16:30;8;5;
61760;PMS5003;47664;51.660;-0.100;2023-11-21T10:19:02;1;1;
61760;PMS5003;47664;51.660;-0.100;2023-11-21T10:21:36;1;1;
61760;PMS5003;47664;51.660;-0.100;2023-11-21T10:24:07;1;1;
61760;PMS5003;47664;51.660;-0.100;2023-11-21T10:26:37;0;0;
61760;PMS5003;47664;51.660;-0.100;2023-11-21T10:29:08;1;1;
61760;PMS5003;47664;51.660;-0.100;2023-11-21T10:31:40;3;3;
61760;PMS5003;47664;51.660;-0.100;2023-11-21T10:34:12;1;1;
61760;PMS5003;47664;51.660;-0.100;2023-11-21T10:36:40;1;1;
61760;PMS5003;47664;51.660;-0.100;2023-11-21T10:39:08;0;0;
61760;PMS5003;47664;51.660;-0.100;2023-11-21T10:41:36;1;1;
61760;PMS5003;47664;51.660;-0.100;2023-11-21T10:44:04;1;1;
61760;PMS5003;47664;51.660;-0.100;2023-11-21T10:46:30;1;1;
61760;PMS5003;47664;51.660;-0.100;2023-11-21T10:48:58;2;1;
61760;PMS5003;47664;51.660;-0.100;2023-11-21T10:51:25;1;1;
61760;PMS5003;47664;51.660;-0.100;2023-11-21T10:53:52;1;1;
61760;PMS5003;47664;51.660;-0.100;2023-11-21T10:56:19;2;2;
61760;PMS5003;47664;51.660;-0.100;2023-11-21T10:58:49;1;0;
61760;PMS5003;47664;51.660;-0.100;2023-11-21T11:01:17;0;0;
61760;PMS5003;47664;51.660;-0.100;2023-11-21T11:03:45;0;0;
61760;PMS5003;47664;51.660;-0.100;2023-11-21T11:06:14;1;1;
61760;PMS5003;47664;51.660;-0.100;2023-11-21T11:08:42;1;1;
61760;PMS5003;47664;51.660;-0.100;2023-11-21T11:11:11;2;1;
61760;PMS5003;47664;51.660;-0.100;2023-11-21T11:13:38;4;2;
61760;PMS5003;47664;51.660;-0.100;2023-11-21T11:16:09;1;1;
61760;PMS5003;47664;51.660;-0.100;2023-11-21T11:18:37;1;0;
61760;PMS5003;47664;51.660;-0.100;2023-11-21T11:21:09;2;0;
61760;PMS5003;47664;51.660;-0.100;2023-11-21T11:23:46;3;3;
61760;PMS5003;47664;51.660;-0.100;2023-11-21T11:26:31;2;2;
61760;PMS5003;47664;51.660;-0.100;2023-11-21T11:29:08;2;2;
61760;PMS5003;47664;51.660;-0.100;2023-11-21T11:31:47;1;1;
61760;PMS5003;47664;51.660;-0.100;2023-11-21T11:34:25;4;4;
61760;PMS5003;47664;51.660;-0.100;2023-11-21T11:37:00;3;3;
61760;PMS5003;47664;51.660;-0.100;2023-11-21T11:39:29;6;3;
61760;PMS5003;47664;51.660;-0.100;2023-11-21T11:41:57;3;3;
61760;PMS5003;47664;51.660;-0.100;2023-11-21T11:44:55;5;4;
61760;PMS5003;47664;51.660;-0.100;2023-11-21T11:47:24;5;2;
61760;PMS5003;47664;51.660;-0.100;2023-11-21T11:50:00;3;3;
61760;PMS5003;47664;51.660;-0.100;2023-11-21T11:52:32;5;5;
61760;PMS5003;47664;51.660;-0.100;2023-11-21T11:55:00;5;5;
61760;PMS5003;47664;51.660;-0.100;2023-11-21T11:57:29;6;5;
61760;PMS5003;47664;51.660;-0.100;2023-11-21T12:00:13;5;5;
61760;PMS5003;47664;51.660;-0.100;2023-11-21T12:02:41;5;5;
61760;PMS5003;47664;51.660;-0.100;2023-11-21T12:05:11;8;5;
61760;PMS5003;47664;51.660;-0.100;2023-11-21T12:07:48;5;4;
61760;PMS5003;47664;51.660;-0.100;2023-11-21T12:10:16;7;5;
61760;PMS5003;47664;51.660;-0.100;2023-11-21T12:12:46;5;5;
61760;PMS5003;47664;51.660;-0.100;2023-11-21T12:15:14;14;12;
61760;PMS5003;47664;51.660;-0.100;2023-11-21T12:17:42;31;25;
61760;PMS5003;47664;51.660;-0.100;2023-11-21T12:20:10;21;16;
61760;PMS5003;47664;51.660;-0.100;2023-11-21T12:22:38;14;14;
61760;PMS5003;47664;51.660;-0.100;2023-11-21T12:25:05;29;25;
61760;PMS5003;47664;51.660;-0.100;2023-11-21T12:27:33;20;19;
61760;PMS5003;47664;51.660;-0.100;2023-11-21T12:30:00;30;26;
61760;PMS5003;47664;51.660;-0.100;2023-11-21T12:32:27;20;16;
61760;PMS5003;47664;51.660;-0.100;2023-11-21T12:34:55;32;28;
61760;PMS5003;47664;51.660;-0.100;2023-11-21T12:37:22;19;16;
61760;PMS5003;47664;51.660;-0.100;2023-11-21T12:39:49;8;8;
61760;PMS5003;47664;51.660;-0.100;2023-11-21T12:42:15;6;5;
61760;PMS5003;47664;51.660;-0.100;2023-11-21T12:44:45;9;8;
61760;PMS5003;47664;51.660;-0.100;2023-11-21T12:47:16;14;13;
61760;PMS5003;47664;51.660;-0.100;2023-11-21T12:49:43;22;21;
61760;PMS5003;47664;51.660;-0.100;2023-11-21T12:52:10;2;2;
61760;PMS5003;47664;51.660;-0.100;2023-11-21T12:54:38;11;11;
61760;PMS5003;47664;51.660;-0.100;2023-11-21T12:57:05;11;10;
61760;PMS5003;47664;51.660;-0.100;2023-11-21T12:59:32;26;26;
61760;PMS5003;47664;51.660;-0.100;2023-11-21T13:01:59;20;17;
61760;PMS5003;47664;51.660;-0.100;2023-11-21T13:04:29;6;6;
61760;PMS5003;47664;51.660;-0.100;2023-11-21T13:07:02;16;16;
61760;PMS5003;47664;51.660;-0.100;2023-11-21T13:09:30;7;7;
61760;PMS5003;47664;51.660;-0.100;2023-11-21T13:11:59;19;19;
61760;PMS5003;47664;51.660;-0.100;2023-11-21T13:14:28;6;3;
61760;PMS5003;47664;51.660;-0.100;2023-11-21T13:16:56;23;20;
61760;PMS5003;47664;51.660;-0.100;2023-11-21T13:19:23;19;17;
61760;PMS5003;47664;51.660;-0.100;2023-11-21T13:21:51;13;13;
61760;PMS5003;47664;51.660;-0.100;2023-11-21T13:24:18;21;19;
61760;PMS5003;47664;51.660;-0.100;2023-11-21T13:26:45;13;13;
61760;PMS5003;47664;51.660;-0.100;2023-11-21T13:29:13;17;17;
61760;PMS5003;47664;51.660;-0.100;2023-11-21T13:31:39;13;11;
61760;PMS5003;47664;51.660;-0.100;2023-11-21T13:34:06;19;19;
61760;PMS5003;47664;51.660;-0.100;2023-11-21T13:36:33;7;4;
61760;PMS5003;47664;51.660;-0.100;2023-11-21T13:39:01;26;26;
61760;PMS5003;47664;51.660;-0.100;2023-11-21T13:41:29;4;4;
61760;PMS5003;47664;51.660;-0.100;2023-11-21T13:43:56;8;8;
61760;PMS5003;47664;51.660;-0.100;2023-11-21T13:46:23;27;27;
61760;PMS5003;47664;51.660;-0.100;2023-11-21T13:48:50;9;7;
61760;PMS5003;47664;51.660;-0.100;2023-11-21T13:51:17;10;7;
61760;PMS5003;47664;51.660;-0.100;2023-11-21T13:53:45;7;7;
61760;PMS5003;47664;51.660;-0.100;2023-11-21T13:56:13;4;4;
61760;PMS5003;47664;51.660;-0.100;2023-11-21T13:58:41;16;16;
61760;PMS5003;47664;51.660;-0.100;2023-11-21T14:01:08;22;21;
61760;PMS5003;47664;51.660;-0.100;2023-11-21T14:03:35;27;25;
61760;PMS5003;47664;51.660;-0.100;2023-11-21T14:06:02;15;15;
61760;PMS5003;47664;51.660;-0.100;2023-11-21T14:08:29;12;12;
61760;PMS5003;47664;51.660;-0.100;2023-11-21T14:10:56;8;8;
61760;PMS5003;47664;51.660;-0.100;2023-11-21T14:13:24;17;13;
61760;PMS5003;47664;51.660;-0.100;2023-11-21T14:15:51;49;45;
61760;PMS5003;47664;51.660;-0.100;2023-11-21T14:18:19;39;32;
61760;PMS5003;47664;51.660;-0.100;2023-11-21T14:20:46;26;20;
61760;PMS5003;47664;51.660;-0.100;2023-11-21T14:23:13;31;28;
61760;PMS5003;47664;51.660;-0.100;2023-11-21T14:25:40;19;19;
61760;PMS5003;47664;51.660;-0.100;2023-11-21T14:28:07;35;30;
61760;PMS5003;47664;51.660;-0.100;2023-11-21T14:30:35;24;22;
61760;PMS5003;47664;51.660;-0.100;2023-11-21T14:33:02;38;36;
61760;PMS5003;47664;51.660;-0.100;2023-11-21T14:35:29;22;20;
61760;PMS5003;47664;51.660;-0.100;2023-11-21T14:37:56;33;31;
61760;PMS5003;47664;51.660;-0.100;2023-11-21T14:40:23;21;14;
61760;PMS5003;47664;51.660;-0.100;2023-11-21T14:42:55;31;26;
61760;PMS5003;47664;51.660;-0.100;2023-11-21T14:45:22;16;15;
61760;PMS5003;47664;51.660;-0.100;2023-11-21T14:47:50;23;20;
61760;PMS5003;47664;51.660;-0.100;2023-11-21T14:50:17;12;10;
61760;PMS5003;47664;51.660;-0.100;2023-11-21T14:52:43;13;11;
61760;PMS5003;47664;51.660;-0.100;2023-11-21T14:55:11;13;12;
61760;PMS5003;47664;51.660;-0.100;2023-11-21T14:57:37;18;15;
61760;PMS5003;47664;51.660;-0.100;2023-11-21T15:00:05;22;20;
61760;PMS5003;47664;51.660;-0.100;2023-11-21T15:02:32;23;19;
61760;PMS5003;47664;51.660;-0.100;2023-11-21T15:05:00;36;29;
61760;PMS5003;47664;51.660;-0.100;2023-11-21T15:07:27;32;26;
61760;PMS5003;47664;51.660;-0.100;2023-11-21T15:09:54;24;22;
61760;PMS5003;47664;51.660;-0.100;2023-11-21T15:12:21;18;18;
61760;PMS5003;47664;51.660;-0.100;2023-11-21T15:14:49;15;12;
61760;PMS5003;47664;51.660;-0.100;2023-11-21T15:17:17;57;53;
61760;PMS5003;47664;51.660;-0.100;2023-11-21T15:19:44;33;31;
61760;PMS5003;47664;51.660;-0.100;2023-11-21T15:22:11;41;37;
61760;PMS5003;47664;51.660;-0.100;2023-11-21T15:24:39;32;29;
61760;PMS5003;47664;51.660;-0.100;2023-11-21T15:27:06;56;48;
61760;PMS5003;47664;51.660;-0.100;2023-11-21T15:29:33;28;27;
61760;PMS5003;47664;51.660;-0.100;2023-11-21T15:32:00;39;34;
61760;PMS5003;47664;51.660;-0.100;2023-11-21T15:34:27;16;16;
61760;PMS5003;47664;51.660;-0.100;2023-11-21T15:36:54;18;12;
61760;PMS5003;47664;51.660;-0.100;2023-11-21T15:39:21;22;16;
61760;PMS5003;47664;51.660;-0.100;2023-11-21T15:41:48;17;14;
61760;PMS5003;47664;51.660;-0.100;2023-11-21T15:44:21;15;13;
61760;PMS5003;47664;51.660;-0.100;2023-11-21T15:46:48;9;5;
61760;PMS5003;47664;51.660;-0.100;2023-11-21T15:49:15;16;16;
61760;PMS5003;47664;51.660;-0.100;2023-11-21T15:51:42;8;7;
61760;PMS5003;47664;51.660;-0.100;2023-11-21T15:54:10;8;5;
61760;PMS5003;47664;51.660;-0.100;2023-11-21T15:56:38;16;12;
61760;PMS5003;47664;51.660;-0.100;2023-11-21T15:59:05;13;11;
61760;PMS5003;47664;51.660;-0.100;2023-11-21T16:01:32;10;7;
61760;PMS5003;47664;51.660;-0.100;2023-11-21T16:03:59;13;7;
61760;PMS5003;47664;51.660;-0.100;2023-11-21T16:06:27;5;3;
61760;PMS5003;47664;51.660;-0.100;2023-11-21T16:08:54;13;12;
61760;PMS5003;47664;51.660;-0.100;2023-11-21T16:11:22;11;9;
61760;PMS5003;47664;51.660;-0.100;2023-11-21T16:13:49;12;11;
61760;PMS5003;47664;51.660;-0.100;2023-11-21T16:16:20;27;24;
61760;PMS5003;47664;51.660;-0.100;2023-11-21T16:18:47;17;15;
61760;PMS5003;47664;51.660;-0.100;2023-11-21T16:21:15;26;25;
61760;PMS5003;47664;51.660;-0.100;2023-11-21T16:23:43;34;32;
61760;PMS5003;47664;51.660;-0.100;2023-11-21T16:26:10;32;31;
61760;PMS5003;47664;51.660;-0.100;2023-11-21T16:28:37;15;14;
61760;PMS5003;47664;51.660;-0.100;2023-11-21T16:31:04;19;19;